Time;durP1;ratioP1;P1;durP2;ratioP2;P2;SDS_P1;SDS_P2;PMS_P1;PMS_P2;Temp;Humidity;BMP_temperature;BMP_pressure;BME280_temperature;BME280_humidity;BME280_pressure;Samples;Min_cycle;Max_cycle;Signal;HPM_P1;HPM_P2
2022/04/19 00:00:39;;;;;;;9.40;4.70;;;8.10;99.90;;;;;;5069953;28;20505;-54
2022/04/19 00:03:09;;;;;;;10.55;4.80;;;8.00;99.90;;;;;;5078898;28;20390;-54
2022/04/19 00:05:36;;;;;;;9.75;4.55;;;8.00;99.90;;;;;;5089857;28;20370;-54
2022/04/19 00:08:03;;;;;;;9.00;4.40;;;7.90;99.90;;;;;;5087910;28;20481;-54
2022/04/19 00:10:29;;;;;;;9.98;5.05;;;7.80;99.90;;;;;;5089540;28;20438;-54
2022/04/19 00:12:59;;;;;;;9.40;4.80;;;7.80;99.90;;;;;;5088039;28;20413;-54
2022/04/19 00:15:28;;;;;;;10.07;4.93;;;7.80;99.90;;;;;;5086616;28;20386;-54
2022/04/19 00:18:00;;;;;;;7.80;4.30;;;9.00;99.90;;;;;;5069468;28;20726;-54
2022/04/19 00:20:27;;;;;;;10.95;5.30;;;7.80;99.90;;;;;;5069952;28;20396;-55
2022/04/19 00:22:53;;;;;;;10.40;4.20;;;7.70;99.90;;;;;;5069321;28;20407;-54
2022/04/19 00:25:19;;;;;;;8.95;4.95;;;7.70;99.90;;;;;;5067529;28;20391;-54
2022/04/19 00:27:45;;;;;;;9.88;4.95;;;7.70;99.90;;;;;;5049292;28;20841;-54
2022/04/19 00:30:11;;;;;;;11.17;5.50;;;7.80;99.90;;;;;;5049257;28;20407;-54
2022/04/19 00:32:38;;;;;;;11.10;4.70;;;7.70;99.90;;;;;;5049961;28;20418;-54
2022/04/19 00:35:09;;;;;;;10.52;4.82;;;7.70;99.90;;;;;;5052704;28;20434;-54
2022/04/19 00:37:36;;;;;;;8.60;4.90;;;7.80;99.90;;;;;;5049042;28;20420;-54
2022/04/19 00:40:03;;;;;;;10.27;4.72;;;7.80;99.90;;;;;;5050359;28;20392;-54
2022/04/19 00:42:30;;;;;;;9.45;4.80;;;7.80;99.90;;;;;;5048667;28;20438;-54
2022/04/19 00:44:57;;;;;;;9.07;4.82;;;7.70;99.90;;;;;;5051687;28;20508;-54
2022/04/19 00:47:23;;;;;;;8.88;4.30;;;7.60;99.90;;;;;;5068367;28;20522;-54
2022/04/19 00:49:48;;;;;;;9.07;4.77;;;7.60;99.90;;;;;;5066073;28;20475;-54
2022/04/19 00:52:15;;;;;;;9.60;5.20;;;7.60;99.90;;;;;;5048501;28;20409;-53
2022/04/19 00:54:43;;;;;;;8.30;4.28;;;7.60;99.90;;;;;;5068584;28;20384;-53
2022/04/19 00:57:11;;;;;;;10.48;4.80;;;7.50;99.90;;;;;;5059563;28;20417;-54
2022/04/19 00:59:37;;;;;;;10.00;4.75;;;7.40;1.00;;;;;;5041868;28;20403;-52
2022/04/19 01:02:03;;;;;;;9.68;5.10;;;7.30;1.00;;;;;;5073298;28;20383;-51
2022/04/19 01:04:30;;;;;;;10.10;5.20;;;7.30;1.00;;;;;;5055872;28;20928;-51
2022/04/19 01:06:57;;;;;;;11.23;5.10;;;7.20;1.00;;;;;;5063578;28;20398;-51
2022/04/19 01:09:24;;;;;;;10.10;5.00;;;7.20;1.00;;;;;;5072400;28;20379;-52
2022/04/19 01:14:38;;;;;;;10.15;5.07;;;7.10;35.50;;;;;;5052439;28;20432;-52
2022/04/19 01:17:06;;;;;;;15.32;5.28;;;7.10;99.90;;;;;;5056165;28;20392;-52
2022/04/19 01:19:35;;;;;;;9.70;5.07;;;6.90;99.90;;;;;;5071775;28;20419;-52
2022/04/19 01:22:01;;;;;;;11.20;5.05;;;6.90;1.00;;;;;;5073009;28;20429;-52
2022/04/19 01:24:27;;;;;;;10.30;5.40;;;6.80;1.00;;;;;;5081025;28;20378;-52
2022/04/19 01:26:57;;;;;;;10.30;5.00;;;6.70;1.00;;;;;;5084518;28;20447;-52
2022/04/19 01:29:24;;;;;;;10.68;4.93;;;6.80;1.00;;;;;;5071632;28;20387;-52
2022/04/19 01:31:51;;;;;;;10.15;4.93;;;6.80;1.00;;;;;;5084862;28;20466;-52
2022/04/19 01:34:18;;;;;;;11.05;5.60;;;6.80;1.00;;;;;;5090758;28;20423;-51
2022/04/19 01:36:44;;;;;;;10.27;5.27;;;6.70;1.00;;;;;;5075783;28;20399;-51
2022/04/19 01:39:11;;;;;;;11.85;4.90;;;6.50;1.00;;;;;;5087174;28;20382;-52
2022/04/19 01:41:38;;;;;;;12.18;5.40;;;6.40;99.90;;;;;;5079535;28;20394;-52
2022/04/19 01:44:05;;;;;;;10.75;5.20;;;6.50;99.90;;;;;;5093366;28;20555;-51
2022/04/19 01:46:31;;;;;;;9.82;5.10;;;6.40;99.90;;;;;;5072781;28;20396;-52
2022/04/19 01:48:57;;;;;;;12.30;5.10;;;6.50;99.90;;;;;;5086221;28;20563;-52
2022/04/19 01:51:24;;;;;;;9.70;5.00;;;6.60;99.90;;;;;;5086347;28;20435;-52
2022/04/19 01:53:51;;;;;;;10.25;4.78;;;6.60;99.90;;;;;;5072315;28;20384;-52
2022/04/19 01:56:18;;;;;;;9.93;5.10;;;6.60;99.90;;;;;;5088797;28;20471;-52
2022/04/19 01:58:44;;;;;;;11.77;4.60;;;6.50;99.90;;;;;;5092586;28;20382;-52
2022/04/19 02:01:11;;;;;;;9.32;4.72;;;6.50;99.90;;;;;;5076988;28;20479;-52
2022/04/19 02:03:36;;;;;;;9.32;4.80;;;6.50;45.70;;;;;;5080347;28;20378;-53
2022/04/19 02:06:10;;;;;;;11.15;5.30;;;6.60;1.00;;;;;;5092283;28;20440;-53
2022/04/19 02:08:36;;;;;;;8.40;4.57;;;6.60;1.00;;;;;;5091213;28;20497;-53
2022/04/19 02:11:02;;;;;;;8.35;4.78;;;6.50;1.00;;;;;;5077590;28;20387;-52
2022/04/19 02:13:28;;;;;;;10.37;5.40;;;6.50;1.00;;;;;;5071439;28;20465;-52
2022/04/19 02:15:54;;;;;;;10.38;4.60;;;6.40;1.00;;;;;;5073807;28;20423;-56
2022/04/19 02:18:20;;;;;;;10.80;5.40;;;6.40;1.00;;;;;;5071417;28;20835;-52
2022/04/19 02:20:46;;;;;;;10.25;5.53;;;6.30;1.00;;;;;;5082827;28;20394;-52
2022/04/19 02:23:15;;;;;;;9.77;4.88;;;6.40;74.40;;;;;;5064601;28;20429;-52
2022/04/19 02:25:42;;;;;;;12.30;5.60;;;6.50;9.30;;;;;;5052216;28;20439;-53
2022/04/19 02:28:10;;;;;;;12.50;5.37;;;6.50;1.00;;;;;;5058017;28;20918;-52
2022/04/19 02:30:36;;;;;;;11.02;5.57;;;6.50;1.00;;;;;;5070940;28;20461;-52
2022/04/19 02:33:02;;;;;;;12.70;5.90;;;6.40;1.00;;;;;;5066503;28;20417;-53
2022/04/19 02:35:28;;;;;;;11.50;5.57;;;6.30;1.00;;;;;;5033746;28;20377;-52
2022/04/19 02:37:57;;;;;;;10.77;5.20;;;6.30;1.00;;;;;;5056598;28;20387;-52
2022/04/19 02:40:25;;;;;;;11.20;5.30;;;6.40;1.00;;;;;;5070917;28;20459;-52
2022/04/19 02:42:54;;;;;;;13.73;5.03;;;6.40;1.00;;;;;;5071327;28;20449;-52
2022/04/19 02:45:24;;;;;;;11.45;5.00;;;6.10;1.00;;;;;;5070957;28;20402;-52
2022/04/19 02:48:04;;;;;;;10.40;5.20;;;6.00;8.30;;;;;;5067293;28;20504;-52
2022/04/19 02:50:50;;;;;;;9.87;4.80;;;5.90;99.90;;;;;;5051842;28;20401;-52
2022/04/19 02:53:15;;;;;;;10.15;4.88;;;5.90;99.90;;;;;;5070493;28;20435;-51
2022/04/19 02:55:42;;;;;;;9.70;4.80;;;5.80;1.00;;;;;;5068041;28;20504;-52
2022/04/19 02:58:08;;;;;;;11.07;5.80;;;5.70;1.00;;;;;;5050968;28;20409;-52
2022/04/19 03:00:33;;;;;;;10.45;5.57;;;5.80;1.00;;;;;;5051168;28;20374;-52
2022/04/19 03:02:59;;;;;;;10.90;5.43;;;5.80;99.90;;;;;;5057024;28;20427;-52
2022/04/19 03:05:25;;;;;;;10.00;5.60;;;5.90;76.30;;;;;;5055385;28;20396;-52
2022/04/19 03:07:50;;;;;;;9.90;5.30;;;6.00;1.00;;;;;;5071415;28;20387;-52
2022/04/19 03:10:16;;;;;;;10.70;5.60;;;6.00;1.00;;;;;;5071320;28;20455;-51
2022/04/19 03:12:45;;;;;;;11.98;5.13;;;6.10;99.90;;;;;;5069677;28;20422;-52
2022/04/19 03:15:12;;;;;;;12.38;5.63;;;6.00;99.90;;;;;;5071191;28;20475;-52
2022/04/19 03:17:38;;;;;;;10.60;5.00;;;6.20;99.90;;;;;;5069701;28;20528;-52
2022/04/19 03:20:08;;;;;;;10.35;4.82;;;6.20;54.20;;;;;;5070558;28;20868;-52
2022/04/19 03:28:06;;;;;;;9.05;4.55;;;6.10;1.00;;;;;;5070858;28;20383;-52
2022/04/19 03:30:32;;;;;;;11.00;5.18;;;6.10;1.00;;;;;;5068270;28;20396;-52
2022/04/19 03:32:59;;;;;;;11.17;5.30;;;6.10;1.00;;;;;;5070047;28;20423;-52
2022/04/19 03:35:25;;;;;;;12.32;5.30;;;6.10;1.00;;;;;;5070004;28;20406;-53
2022/04/19 03:37:51;;;;;;;9.20;4.85;;;6.10;1.00;;;;;;5090193;28;20378;-52
2022/04/19 03:40:17;;;;;;;11.02;5.40;;;6.00;1.00;;;;;;5074256;28;20422;-51
2022/04/19 03:42:43;;;;;;;10.50;5.30;;;6.00;1.00;;;;;;5070303;28;20441;-52
2022/04/19 03:45:10;;;;;;;11.40;5.30;;;5.90;1.00;;;;;;5062774;28;20436;-52
2022/04/19 03:47:36;;;;;;;12.50;5.53;;;5.80;38.00;;;;;;5069201;28;20844;-52
2022/04/19 03:50:02;;;;;;;10.40;5.50;;;5.80;99.90;;;;;;5069229;28;20931;-52
2022/04/19 03:52:28;;;;;;;11.60;5.60;;;5.70;99.90;;;;;;5031731;28;20524;-52
2022/04/19 03:54:53;;;;;;;11.68;4.93;;;5.60;99.90;;;;;;5066339;28;20486;-52
2022/04/19 03:57:19;;;;;;;12.63;5.20;;;5.60;99.90;;;;;;5069973;28;20868;-51
2022/04/19 03:59:45;;;;;;;9.50;5.15;;;5.80;99.90;;;;;;5071396;28;20864;-52
2022/04/19 04:02:11;;;;;;;12.60;5.30;;;5.90;1.00;;;;;;5070319;28;20394;-52
2022/04/19 04:04:37;;;;;;;11.83;4.90;;;5.80;1.00;;;;;;5081210;28;20389;-52
2022/04/19 04:07:04;;;;;;;9.68;4.85;;;5.70;1.00;;;;;;5083488;28;20811;-52
2022/04/19 04:09:35;;;;;;;12.33;5.10;;;5.80;1.00;;;;;;5067597;28;20807;-52
2022/04/19 04:12:05;;;;;;;9.75;4.80;;;5.70;99.90;;;;;;5075678;28;20445;-52
2022/04/19 04:14:31;;;;;;;9.70;5.10;;;5.60;99.90;;;;;;5052426;28;20701;-52
2022/04/19 04:16:57;;;;;;;9.35;5.22;;;5.50;1.00;;;;;;5056161;28;20398;-52
2022/04/19 04:19:24;;;;;;;12.67;5.20;;;5.50;1.00;;;;;;5052473;28;20370;-52
2022/04/19 04:21:50;;;;;;;12.35;5.43;;;5.70;99.90;;;;;;5064312;28;20466;-52
2022/04/19 04:24:15;;;;;;;11.50;5.40;;;5.60;99.90;;;;;;5073016;28;20794;-52
2022/04/19 04:26:41;;;;;;;12.32;5.25;;;5.70;99.90;;;;;;5068183;28;20887;-52
2022/04/19 04:29:07;;;;;;;12.27;5.80;;;5.70;99.90;;;;;;5072719;28;20875;-52
2022/04/19 04:31:33;;;;;;;9.97;5.27;;;5.70;99.90;;;;;;5071998;28;20388;-53
2022/04/19 04:33:59;;;;;;;10.73;4.97;;;5.70;99.90;;;;;;5071953;28;20806;-52
2022/04/19 04:36:25;;;;;;;13.45;6.03;;;5.60;99.90;;;;;;5069145;28;20403;-53
2022/04/19 04:38:51;;;;;;;11.50;5.67;;;5.60;1.00;;;;;;5077599;28;20799;-53
2022/04/19 04:41:17;;;;;;;9.82;5.10;;;5.60;1.00;;;;;;5072567;28;20402;-52
2022/04/19 04:43:43;;;;;;;12.45;5.20;;;5.50;1.00;;;;;;5070965;28;20499;-53
2022/04/19 04:51:38;;;;;;;12.98;5.15;;;5.60;1.00;;;;;;5072923;28;20483;-53
2022/04/19 04:54:04;;;;;;;10.38;5.40;;;5.80;1.00;;;;;;5077504;28;20883;-53
2022/04/19 04:56:30;;;;;;;10.60;5.40;;;5.70;1.00;;;;;;5057585;28;20418;-53
2022/04/19 04:58:56;;;;;;;10.43;5.80;;;5.70;93.40;;;;;;5072480;28;20386;-53
2022/04/19 05:01:22;;;;;;;13.03;6.00;;;5.80;99.90;;;;;;5079911;28;20805;-51
2022/04/19 05:03:47;;;;;;;11.00;5.50;;;5.90;99.90;;;;;;5069514;28;20424;-54
2022/04/19 05:06:13;;;;;;;15.93;5.60;;;6.10;1.00;;;;;;5070661;28;20431;-53
2022/04/19 05:08:39;;;;;;;12.33;5.90;;;6.30;1.00;;;;;;5068249;28;21061;-53
2022/04/19 05:11:04;;;;;;;13.00;5.57;;;6.40;99.90;;;;;;5078587;28;20421;-53
2022/04/19 05:13:30;;;;;;;12.23;6.10;;;6.60;77.70;;;;;;5089040;28;20417;-53
2022/04/19 05:16:00;;;;;;;15.02;5.85;;;6.70;1.00;;;;;;5082944;28;20391;-53
2022/04/19 05:18:26;;;;;;;13.90;6.20;;;6.90;1.00;;;;;;5088228;28;20390;-53
2022/04/19 05:20:52;;;;;;;12.57;6.10;;;6.90;1.00;;;;;;5086648;28;20555;-53
2022/04/19 05:23:19;;;;;;;11.52;5.88;;;6.90;1.00;;;;;;5069182;28;20393;-54
2022/04/19 05:25:45;;;;;;;11.52;5.72;;;7.10;1.00;;;;;;5066013;28;20402;-53
2022/04/19 05:28:10;;;;;;;13.68;6.22;;;7.30;1.00;;;;;;5066166;28;20383;-53
2022/04/19 05:30:36;;;;;;;13.23;7.00;;;7.50;99.90;;;;;;5066038;28;20944;-53
2022/04/19 05:33:02;;;;;;;13.43;6.22;;;7.70;99.90;;;;;;5068896;28;20931;-53
2022/04/19 05:35:28;;;;;;;15.17;7.00;;;8.00;99.90;;;;;;5055581;28;20890;-53
2022/04/19 05:37:55;;;;;;;12.50;6.32;;;8.30;99.90;;;;;;5050245;28;20425;-53
2022/04/19 05:40:21;;;;;;;12.55;6.20;;;9.00;99.90;;;;;;5055278;28;20392;-52
2022/04/19 05:42:47;;;;;;;13.82;6.35;;;9.90;1.00;;;;;;5064911;28;20450;-53
2022/04/19 05:45:13;;;;;;;11.48;6.20;;;10.60;1.00;;;;;;5052341;28;20905;-53
2022/04/19 05:47:40;;;;;;;12.57;6.70;;;11.10;1.00;;;;;;5057141;28;20400;-53
2022/04/19 05:50:06;;;;;;;12.10;6.63;;;11.60;1.00;;;;;;5063509;28;20802;-53
2022/04/19 05:52:31;;;;;;;12.02;6.43;;;12.10;99.90;;;;;;5050986;28;20445;-53
2022/04/19 05:54:57;;;;;;;11.77;6.60;;;12.90;82.70;;;;;;5059877;28;20412;-54
2022/04/19 05:57:23;;;;;;;11.83;5.80;;;14.10;96.90;;;;;;5036803;28;20448;-53
2022/04/19 05:59:48;;;;;;;12.35;5.82;;;15.50;93.50;;;;;;5064833;28;20935;-54
2022/04/19 06:04:59;;;;;;;11.15;6.80;;;17.60;76.90;;;;;;5060667;28;20408;-54
2022/04/19 06:07:27;;;;;;;11.40;7.10;;;17.80;99.90;;;;;;5066469;28;20408;-54
2022/04/19 06:09:53;;;;;;;12.90;7.28;;;18.40;99.90;;;;;;5072026;28;20390;-54
2022/04/19 06:12:19;;;;;;;11.10;7.20;;;18.90;99.90;;;;;;5071311;28;20789;-54
2022/04/19 06:14:45;;;;;;;10.70;7.97;;;19.10;99.90;;;;;;5057127;28;20468;-54
2022/04/19 06:17:14;;;;;;;12.95;8.00;;;19.20;99.90;;;;;;5056998;28;20391;-54
2022/04/19 06:19:41;;;;;;;10.65;7.35;;;19.50;99.90;;;;;;5059109;28;20451;-54
2022/04/19 06:22:07;;;;;;;11.67;8.57;;;19.20;99.90;;;;;;5067670;28;20414;-54
2022/04/19 06:24:33;;;;;;;13.02;9.50;;;19.70;99.90;;;;;;5091719;28;20381;-54
2022/04/19 06:26:58;;;;;;;11.75;9.32;;;20.40;99.90;;;;;;5090584;28;20394;-55
2022/04/19 06:29:24;;;;;;;14.73;9.25;;;20.50;99.90;;;;;;5089946;28;20393;-54
2022/04/19 06:31:50;;;;;;;13.10;8.93;;;20.80;99.90;;;;;;5080943;28;20487;-55
2022/04/19 06:34:16;;;;;;;12.30;7.93;;;21.20;99.90;;;;;;5072007;28;20415;-55
2022/04/19 06:36:43;;;;;;;12.98;10.48;;;20.90;99.90;;;;;;5088224;28;20993;-54
2022/04/19 06:39:09;;;;;;;10.93;7.40;;;21.00;99.90;;;;;;5088113;28;20424;-55
2022/04/19 06:41:37;;;;;;;14.95;6.40;;;21.00;99.90;;;;;;5087813;28;20397;-55
2022/04/19 06:44:03;;;;;;;12.57;6.10;;;20.90;99.90;;;;;;5090393;28;20523;-54
2022/04/19 06:46:29;;;;;;;13.18;6.68;;;20.60;99.90;;;;;;5076773;28;20436;-55
2022/04/19 06:48:56;;;;;;;10.18;5.90;;;21.00;99.90;;;;;;5090344;28;20378;-56
2022/04/19 06:51:22;;;;;;;14.10;9.10;;;21.70;99.90;;;;;;5072402;28;20397;-55
2022/04/19 06:53:49;;;;;;;13.10;8.95;;;21.90;99.90;;;;;;5091196;28;20793;-56
2022/04/19 06:56:15;;;;;;;10.52;9.05;;;21.80;99.90;;;;;;5077045;28;20396;-56
2022/04/19 06:58:42;;;;;;;11.30;8.57;;;21.00;99.90;;;;;;5052606;28;20730;-56
2022/04/19 07:01:10;;;;;;;15.40;10.40;;;20.70;99.90;;;;;;5072598;28;20426;-56
2022/04/19 07:03:36;;;;;;;13.55;8.90;;;21.30;99.90;;;;;;5070588;28;20392;-55
2022/04/19 07:06:02;;;;;;;11.77;9.75;;;21.40;99.90;;;;;;5084397;28;20386;-55
2022/04/19 07:08:29;;;;;;;13.05;9.68;;;21.20;99.90;;;;;;5090917;28;20386;-55
2022/04/19 07:10:55;;;;;;;13.95;8.90;;;21.60;99.90;;;;;;5076831;28;20479;-55
2022/04/19 07:13:21;;;;;;;15.05;10.55;;;21.50;99.90;;;;;;5068765;28;20543;-55
2022/04/19 07:15:47;;;;;;;13.37;10.40;;;;;;;;;;5085805;28;20483;-56
2022/04/19 07:18:14;;;;;;;14.13;9.93;;;22.90;25.20;;;;;;5090841;28;20474;-56
2022/04/19 07:28:52;;;;;;;16.83;10.10;;;23.20;1.00;;;;;;5052481;28;20380;-57
2022/04/19 07:31:19;;;;;;;11.13;7.60;;;23.80;1.00;;;;;;5062163;28;20400;-55
2022/04/19 07:33:45;;;;;;;10.82;8.68;;;23.10;1.00;;;;;;5059328;28;20790;-55
2022/04/19 07:36:11;;;;;;;12.15;7.82;;;23.20;1.00;;;;;;5070054;28;20911;-56
2022/04/19 07:38:37;;;;;;;11.00;8.10;;;23.90;1.00;;;;;;5052543;28;20404;-56
2022/04/19 07:41:04;;;;;;;14.35;11.30;;;24.80;1.00;;;;;;5043621;28;20779;-56
2022/04/19 07:43:30;;;;;;;14.05;12.55;;;;;;;;;;5067492;28;20400;-56
2022/04/19 07:45:56;;;;;;;15.27;10.80;;;24.60;99.90;;;;;;5051072;28;20409;-56
2022/04/19 07:48:22;;;;;;;11.60;6.90;;;24.40;99.90;;;;;;5050482;28;20388;-55
2022/04/19 07:50:48;;;;;;;11.30;6.93;;;24.30;99.90;;;;;;5034313;28;20412;-56
2022/04/19 07:53:13;;;;;;;13.18;6.82;;;24.70;99.90;;;;;;5063160;28;20596;-58
2022/04/19 07:55:39;;;;;;;11.38;6.28;;;24.60;99.90;;;;;;5061614;28;20479;-56
2022/04/19 07:58:05;;;;;;;16.07;7.20;;;24.50;99.90;;;;;;5062709;28;20389;-56
2022/04/19 08:00:31;;;;;;;10.93;6.70;;;25.40;99.90;;;;;;5058746;28;20400;-56
2022/04/19 08:02:57;;;;;;;12.43;6.70;;;26.70;99.90;;;;;;5061975;28;21290;-56
2022/04/19 08:05:24;;;;;;;12.50;7.30;;;25.50;99.90;;;;;;5060724;28;20389;-55
2022/04/19 08:07:50;;;;;;;14.80;6.40;;;25.00;99.90;;;;;;5060922;28;20396;-56
2022/04/19 08:10:17;;;;;;;11.65;7.00;;;25.40;99.90;;;;;;5065076;28;20399;-56
2022/04/19 08:12:44;;;;;;;10.70;6.55;;;25.20;99.90;;;;;;5063625;28;20447;-56
2022/04/19 08:15:10;;;;;;;13.27;10.70;;;24.70;99.90;;;;;;5060789;28;20464;-56
2022/04/19 08:17:37;;;;;;;14.90;11.45;;;24.40;99.90;;;;;;5057543;28;20941;-56
2022/04/19 08:20:04;;;;;;;13.85;11.40;;;25.20;99.90;;;;;;5056323;28;20763;-56
2022/04/19 08:22:30;;;;;;;14.55;11.85;;;26.00;99.90;;;;;;5057891;28;20804;-55
2022/04/19 08:24:56;;;;;;;15.13;12.63;;;26.20;99.90;;;;;;5079582;28;20460;-56
2022/04/19 08:27:21;;;;;;;15.30;11.87;;;25.60;99.90;;;;;;5079343;28;20501;-56
2022/04/19 08:29:48;;;;;;;13.47;10.20;;;25.50;99.90;;;;;;5079590;28;20752;-56
2022/04/19 08:32:14;;;;;;;14.48;10.45;;;25.40;99.90;;;;;;5083776;28;20817;-56
2022/04/19 08:34:40;;;;;;;11.73;9.55;;;25.50;99.90;;;;;;5080452;28;20390;-56
2022/04/19 08:37:07;;;;;;;16.08;12.30;;;26.00;99.90;;;;;;5090070;28;20491;-55
2022/04/19 08:39:33;;;;;;;14.77;13.13;;;26.80;99.90;;;;;;5069178;28;20376;-56
2022/04/19 08:41:59;;;;;;;16.83;11.95;;;26.80;99.90;;;;;;5052167;28;20391;-56
2022/04/19 08:44:25;;;;;;;14.98;12.93;;;26.90;99.90;;;;;;5074011;28;20398;-55
2022/04/19 08:46:55;;;;;;;11.60;9.52;;;26.20;99.90;;;;;;5086855;28;20394;-56
2022/04/19 08:49:21;;;;;;;11.43;7.25;;;26.50;99.90;;;;;;5080190;28;20479;-56
2022/04/19 08:51:48;;;;;;;12.70;7.75;;;26.70;99.90;;;;;;5085297;28;20429;-57
2022/04/19 08:59:43;;;;;;;9.65;6.53;;;29.60;1.00;;;;;;5088947;28;20385;-57
2022/04/19 09:02:22;;;;;;;13.25;6.75;;;29.30;1.00;;;;;;5089097;28;20863;-57
2022/04/19 09:04:52;;;;;;;12.50;10.90;;;28.70;1.00;;;;;;5085204;28;20394;-56
2022/04/19 09:07:18;;;;;;;12.50;11.27;;;28.40;1.00;;;;;;5089520;28;20378;-58
2022/04/19 09:10:01;;;;;;;12.23;8.93;;;28.10;99.90;;;;;;5088424;28;21305;-58
2022/04/19 09:12:27;;;;;;;11.70;8.85;;;27.30;99.90;;;;;;5089063;28;20406;-56
2022/04/19 09:14:58;;;;;;;11.43;7.60;;;28.20;1.00;;;;;;5089468;28;20386;-56
2022/04/19 09:17:35;;;;;;;10.65;4.50;;;28.90;1.00;;;;;;5085396;28;20414;-57
2022/04/19 09:20:15;;;;;;;8.63;3.90;;;29.10;1.00;;;;;;5087948;28;20739;-56
2022/04/19 09:22:51;;;;;;;12.10;7.18;;;27.90;1.00;;;;;;5092590;28;20463;-56
2022/04/19 09:25:20;;;;;;;11.25;7.53;;;28.00;1.00;;;;;;5093136;28;20362;-57
2022/04/19 09:27:48;;;;;;;8.33;4.50;;;28.10;1.00;;;;;;5089514;28;20398;-57
2022/04/19 09:30:19;;;;;;;10.02;5.35;;;29.40;88.50;;;;;;5091628;28;20374;-57
2022/04/19 09:33:06;;;;;;;10.13;5.27;;;29.80;1.00;;;;;;5092157;28;20490;-56
2022/04/19 09:35:38;;;;;;;9.03;4.60;;;29.60;1.00;;;;;;5092203;28;20407;-55
2022/04/19 09:38:05;;;;;;;8.85;4.80;;;29.80;1.00;;;;;;5092758;28;20381;-56
2022/04/19 09:40:36;;;;;;;9.48;5.03;;;29.60;1.00;;;;;;5093166;28;20924;-56
2022/04/19 09:43:15;;;;;;;10.20;4.72;;;28.80;1.00;;;;;;5085866;28;20453;-55
2022/04/19 09:46:02;;;;;;;8.20;3.90;;;28.90;1.00;;;;;;5086774;28;20390;-56
2022/04/19 09:48:39;;;;;;;9.73;6.10;;;28.80;1.00;;;;;;5092606;28;20378;-55
2022/04/19 09:51:13;;;;;;;9.80;7.85;;;28.10;1.00;;;;;;5087676;28;20398;-56
2022/04/19 09:53:48;;;;;;;9.50;8.00;;;26.70;99.90;;;;;;5083578;28;20418;-56
2022/04/19 09:56:19;;;;;;;11.02;9.15;;;27.00;99.90;;;;;;5091818;28;20397;-56
2022/04/19 09:58:47;;;;;;;11.02;9.30;;;27.60;99.90;;;;;;5073844;28;20463;-56
2022/04/19 10:09:37;;;;;;;10.70;8.13;;;27.30;99.90;;;;;;5074799;28;20386;-54
2022/04/19 10:12:06;;;;;;;11.30;8.02;;;27.20;99.90;;;;;;5092275;28;20771;-56
2022/04/19 10:14:32;;;;;;;10.75;8.20;;;27.40;99.90;;;;;;5059169;28;20452;-56
2022/04/19 10:16:59;;;;;;;9.38;8.00;;;27.80;99.90;;;;;;5072416;28;20372;-56
2022/04/19 10:19:27;;;;;;;13.30;7.78;;;27.60;99.90;;;;;;5072081;28;20380;-56
2022/04/19 10:21:54;;;;;;;9.60;8.45;;;26.20;99.90;;;;;;5084445;28;20452;-56
2022/04/19 10:24:20;;;;;;;10.20;8.63;;;26.00;99.90;;;;;;5085027;28;20395;-56
2022/04/19 10:26:48;;;;;;;10.85;8.75;;;25.60;99.90;;;;;;5087619;28;20381;-56
2022/04/19 10:29:20;;;;;;;11.70;9.32;;;25.40;99.90;;;;;;5090279;28;20486;-56
2022/04/19 10:32:02;;;;;;;10.57;8.50;;;25.80;99.90;;;;;;5091551;28;20471;-56
2022/04/19 10:34:31;;;;;;;9.82;8.35;;;25.70;99.90;;;;;;5091004;28;20409;-55
2022/04/19 10:37:18;;;;;;;9.90;8.50;;;25.90;99.90;;;;;;5091728;28;20370;-56
2022/04/19 10:39:54;;;;;;;10.80;9.40;;;25.30;99.90;;;;;;5091046;28;20421;-56
2022/04/19 10:42:33;;;;;;;10.60;9.50;;;24.60;99.90;;;;;;5091562;28;20407;-56
2022/04/19 10:45:20;;;;;;;10.57;8.83;;;23.40;99.90;;;;;;5091988;28;20378;-56
2022/04/19 10:48:07;;;;;;;13.75;9.18;;;22.90;99.90;;;;;;5087599;28;20499;-57
2022/04/19 10:50:39;;;;;;;9.93;8.30;;;23.00;99.90;;;;;;5084273;28;20894;-56
2022/04/19 10:53:12;;;;;;;9.65;8.63;;;22.70;99.90;;;;;;5083503;28;20423;-57
2022/04/19 10:55:40;;;;;;;10.00;8.50;;;22.80;99.90;;;;;;5080522;28;20371;-56
2022/04/19 10:58:21;;;;;;;11.23;9.30;;;22.70;99.90;;;;;;5083124;28;20894;-56
2022/04/19 11:00:54;;;;;;;11.27;8.98;;;22.40;99.90;;;;;;5081484;28;20431;-56
2022/04/19 11:03:26;;;;;;;10.43;9.02;;;22.80;99.90;;;;;;5082780;28;20391;-57
2022/04/19 11:05:53;;;;;;;10.77;9.65;;;22.60;99.90;;;;;;5079098;28;20409;-57
2022/04/19 11:08:30;;;;;;;11.77;9.77;;;22.20;99.90;;;;;;5082459;28;20424;-57
2022/04/19 11:10:56;;;;;;;12.15;9.88;;;21.90;99.90;;;;;;5090727;28;20382;-57
2022/04/19 11:13:26;;;;;;;12.63;10.10;;;21.50;99.90;;;;;;5086237;28;20814;-57
2022/04/19 11:15:58;;;;;;;11.73;9.73;;;21.20;99.90;;;;;;5070692;28;20406;-58
2022/04/19 11:18:26;;;;;;;12.48;10.10;;;21.10;99.90;;;;;;5070741;28;20387;-57
2022/04/19 11:20:57;;;;;;;12.93;8.80;;;21.20;99.90;;;;;;5070158;28;20392;-57
2022/04/19 11:23:24;;;;;;;11.20;8.40;;;21.00;99.90;;;;;;5070689;28;20504;-57
2022/04/19 11:25:51;;;;;;;13.38;8.85;;;21.10;99.90;;;;;;5069953;28;20381;-57
2022/04/19 11:28:25;;;;;;;10.40;5.68;;;21.00;99.90;;;;;;5070354;28;20461;-55
2022/04/19 11:30:57;;;;;;;12.73;5.78;;;20.90;99.90;;;;;;5068158;28;20403;-54
2022/04/19 11:33:26;;;;;;;11.13;5.63;;;21.30;99.90;;;;;;5060440;28;20440;-55
2022/04/19 11:36:13;;;;;;;10.07;4.72;;;21.40;99.90;;;;;;5067277;28;20376;-56
2022/04/19 11:38:40;;;;;;;8.50;4.20;;;21.50;99.90;;;;;;5066172;28;20431;-55
2022/04/19 11:46:49;;;;;;;9.50;4.50;;;21.80;99.90;;;;;;5065408;28;20469;-55
2022/04/19 11:49:25;;;;;;;10.88;4.20;;;21.50;99.90;;;;;;5065875;28;20400;-55
2022/04/19 11:51:56;;;;;;;10.38;5.07;;;21.50;99.90;;;;;;5068116;28;20397;-55
2022/04/19 11:54:32;;;;;;;11.20;5.40;;;21.40;99.90;;;;;;5068224;28;20398;-57
2022/04/19 11:57:07;;;;;;;9.60;5.10;;;21.50;99.90;;;;;;5068805;28;20413;-57
2022/04/19 11:59:37;;;;;;;8.77;4.40;;;21.70;99.90;;;;;;5045612;28;20407;-54
2022/04/19 12:02:05;;;;;;;9.80;4.80;;;21.80;99.90;;;;;;5057578;28;20405;-58
2022/04/19 12:04:30;;;;;;;10.02;5.10;;;21.80;99.90;;;;;;5064146;28;20896;-55
2022/04/19 12:07:03;;;;;;;10.20;4.50;;;22.00;99.90;;;;;;5067390;28;20376;-58
2022/04/19 12:09:33;;;;;;;9.68;4.90;;;22.00;99.90;;;;;;5068605;28;20402;-57
2022/04/19 12:11:59;;;;;;;11.20;5.68;;;22.10;99.90;;;;;;5068569;28;20387;-57
2022/04/19 12:14:29;;;;;;;10.80;5.00;;;21.80;99.90;;;;;;5066784;28;20399;-57
2022/04/19 12:16:57;;;;;;;11.05;5.28;;;21.90;99.90;;;;;;5068698;28;20395;-57
2022/04/19 12:19:40;;;;;;;10.10;4.95;;;21.70;99.90;;;;;;5066594;28;20424;-57
2022/04/19 12:22:18;;;;;;;10.43;5.63;;;21.70;99.90;;;;;;5078944;28;20402;-57
2022/04/19 12:24:45;;;;;;;12.02;5.10;;;21.60;99.90;;;;;;5089055;28;20468;-57
2022/04/19 12:27:11;;;;;;;9.95;4.70;;;21.40;99.90;;;;;;5089663;28;20487;-56
2022/04/19 12:29:54;;;;;;;10.03;4.90;;;21.20;99.90;;;;;;5070768;28;20393;-56
2022/04/19 12:32:20;;;;;;;9.15;4.25;;;20.90;99.90;;;;;;5089941;28;20842;-56
2022/04/19 12:34:46;;;;;;;10.77;4.50;;;21.40;99.90;;;;;;5088342;28;20386;-57
2022/04/19 12:37:16;;;;;;;9.02;4.50;;;21.40;99.90;;;;;;5089424;28;20378;-56
2022/04/19 12:39:55;;;;;;;9.60;4.28;;;21.20;99.90;;;;;;5088390;28;20390;-56
2022/04/19 12:42:21;;;;;;;9.05;4.15;;;21.10;99.90;;;;;;5088054;28;20399;-57
2022/04/19 12:45:02;;;;;;;9.57;4.93;;;21.10;99.90;;;;;;5088078;28;20571;-57
2022/04/19 12:47:28;;;;;;;12.07;4.72;;;20.90;99.90;;;;;;5084919;28;20390;-57
2022/04/19 12:49:55;;;;;;;10.48;4.30;;;21.20;99.90;;;;;;5082273;28;20735;-56
2022/04/19 12:52:32;;;;;;;9.50;4.70;;;21.50;99.90;;;;;;5084475;28;20444;-56
2022/04/19 12:55:01;;;;;;;7.30;3.47;;;21.60;99.90;;;;;;5090255;28;20393;-57
2022/04/19 12:57:27;;;;;;;9.38;4.20;;;21.00;99.90;;;;;;5093920;28;20421;-56
2022/04/19 12:59:53;;;;;;;9.50;4.68;;;20.80;99.90;;;;;;5092512;28;20378;-56
2022/04/19 13:02:20;;;;;;;8.50;4.38;;;20.50;99.90;;;;;;5086992;28;20400;-54
2022/04/19 13:04:49;;;;;;;10.02;4.70;;;20.30;99.90;;;;;;5086642;28;20930;-57
2022/04/19 13:12:45;;;;;;;10.77;5.20;;;21.20;99.90;;;;;;5092415;28;20889;-56
2022/04/19 13:15:11;;;;;;;9.47;4.90;;;21.20;99.90;;;;;;5092656;28;20453;-57
2022/04/19 13:17:39;;;;;;;10.35;4.90;;;21.40;99.90;;;;;;5074179;28;20882;-56
2022/04/19 13:20:06;;;;;;;9.75;4.82;;;21.40;99.90;;;;;;5089069;28;20484;-56
2022/04/19 13:22:33;;;;;;;8.70;4.75;;;21.30;99.90;;;;;;5086413;28;20528;-56
2022/04/19 13:24:59;;;;;;;9.65;4.70;;;21.50;99.90;;;;;;5090353;28;20503;-57
2022/04/19 13:27:26;;;;;;;9.60;4.90;;;21.50;99.90;;;;;;5086262;28;20939;-56
2022/04/19 13:29:53;;;;;;;8.88;5.00;;;21.50;99.90;;;;;;5092321;28;20384;-57
2022/04/19 13:32:20;;;;;;;9.63;4.70;;;21.70;99.90;;;;;;5092836;28;20460;-57
2022/04/19 13:34:46;;;;;;;10.40;4.80;;;21.70;99.90;;;;;;5091801;28;20443;-57
2022/04/19 13:37:13;;;;;;;9.55;5.15;;;21.60;99.90;;;;;;5084768;28;20393;-56
2022/04/19 13:39:39;;;;;;;10.90;5.20;;;21.60;99.90;;;;;;5084925;28;20382;-56